This is the latest recevied weather packets stored in our database for station/object TVARMINN. If no packets are shown the sender has not sent any weather packets the latest 10 day(s).
| Time | Temp. | Humidity | Pressure | Rain* | Wind** | Luminosity | Snow |
|---|---|---|---|---|---|---|---|
| 1777740427 | 8.89° C | 73% | 1010.2 hPa | 0 mm | - | - | - |
| 1777739227 | 8.33° C | 76% | 1010.3 hPa | 0 mm | - | - | - |
| 1777738027 | 8.89° C | 75% | 1010.5 hPa | 0 mm | - | - | - |
| 1777736827 | 8.89° C | 74% | 1010.9 hPa | 0 mm | - | - | - |
| 1777735626 | 9.44° C | 71% | 1011.1 hPa | 0 mm | - | - | - |
| 1777734427 | 10° C | 69% | 1011.2 hPa | 0 mm | - | - | - |
| 1777733226 | 10° C | 69% | 1011.3 hPa | 0 mm | - | - | - |
| 1777732027 | 10.56° C | 67% | 1011.3 hPa | 0 mm | - | - | - |
| 1777729627 | 10° C | 67% | 1011.6 hPa | 0 mm | - | - | - |
| 1777728427 | 10° C | 69% | 1011.7 hPa | 0 mm | - | - | - |
| 1777727227 | 10° C | 69% | 1011.7 hPa | 0 mm | - | - | - |
| 1777726027 | 10° C | 66% | 1011.7 hPa | 0 mm | - | - | - |
| 1777724826 | 10.56° C | 66% | 1011.9 hPa | 0 mm | - | - | - |
| 1777723627 | 9.44° C | 69% | 1012 hPa | 0 mm | - | - | - |
| 1777722427 | 9.44° C | 71% | 1012.1 hPa | 0 mm | - | - | - |
| 1777721227 | 9.44° C | 70% | 1012.2 hPa | 0 mm | - | - | - |
| 1777720026 | 8.89° C | 72% | 1012.3 hPa | 0 mm | - | - | - |
| 1777718826 | 9.44° C | 71% | 1012.2 hPa | 0 mm | - | - | - |
| 1777717626 | 9.44° C | 72% | 1012.1 hPa | 0 mm | - | - | - |
| 1777716426 | 9.44° C | 72% | 1012.1 hPa | 0 mm | - | - | - |
| 1777715226 | 9.44° C | 73% | 1012.1 hPa | 0 mm | - | - | - |
| 1777714026 | 8.33° C | 74% | 1012.1 hPa | 0 mm | - | - | - |
| 1777712826 | 9.44° C | 70% | 1012.2 hPa | 0 mm | - | - | - |
| 1777711626 | 10° C | 69% | 1012.1 hPa | 0 mm | - | - | - |
| 1777710426 | 10° C | 68% | 1012.2 hPa | 0 mm | - | - | - |
* Rain latest hour (hover to see other rain measurements)
** Current wind speed in m/s (hover to see current wind gust speed)